Time;durP1;ratioP1;P1;durP2;ratioP2;P2;SDS_P1;SDS_P2;PMS_P1;PMS_P2;Temp;Humidity;BMP_temperature;BMP_pressure;BME280_temperature;BME280_humidity;BME280_pressure;Samples;Min_cycle;Max_cycle;Signal;HPM_P1;HPM_P2
2022/05/10 00:01:34;;;;;;;11.43;10.63;;;;;;;15.81;81.63;96034.81;4395757;32;20185;-60
2022/05/10 00:04:01;;;;;;;12.30;11.20;;;;;;;15.76;82.02;96027.72;4349547;32;20192;-60
2022/05/10 00:06:34;;;;;;;12.47;11.37;;;;;;;15.72;81.88;96026.75;4347791;32;20219;-59
2022/05/10 00:09:06;;;;;;;12.47;11.50;;;;;;;15.73;81.85;96028.34;4344673;32;20261;-59
2022/05/10 00:11:33;;;;;;;11.87;10.93;;;;;;;15.50;82.46;96015.28;4363879;32;20179;-59
2022/05/10 00:13:58;;;;;;;12.27;11.40;;;;;;;15.60;82.45;96020.41;4396331;32;20194;-59
2022/05/10 00:16:27;;;;;;;11.93;10.93;;;;;;;15.62;82.56;96019.00;4393704;32;20180;-59
2022/05/10 00:18:53;;;;;;;12.13;11.23;;;;;;;15.54;82.64;96014.37;4368264;32;20244;-59
2022/05/10 00:21:24;;;;;;;13.50;12.33;;;;;;;15.42;83.12;96022.16;4388779;32;20184;-59
2022/05/10 00:23:52;;;;;;;12.43;11.10;;;;;;;15.42;83.12;96012.25;4375586;32;20184;-59
2022/05/10 00:26:18;;;;;;;12.13;11.23;;;;;;;15.50;82.69;96016.09;4373942;32;20264;-59
2022/05/10 00:28:45;;;;;;;12.60;11.53;;;;;;;15.58;82.17;96015.37;4376520;32;20195;-59
2022/05/10 00:31:12;;;;;;;12.03;11.20;;;;;;;15.39;82.77;96012.06;4368698;32;20200;-60
2022/05/10 00:33:37;;;;;;;12.03;10.93;;;;;;;15.39;83.17;96012.06;4352374;32;20195;-60
2022/05/10 00:36:09;;;;;;;11.50;10.60;;;;;;;15.54;82.21;96003.69;4342364;32;20260;-59
2022/05/10 00:38:38;;;;;;;12.20;11.13;;;;;;;15.23;83.12;96005.53;4371973;32;20185;-60
2022/05/10 00:41:32;;;;;;;12.67;11.67;;;;;;;15.36;82.69;96002.81;4388777;32;20177;-59
2022/05/10 00:44:07;;;;;;;11.83;10.60;;;;;;;15.33;83.09;95997.28;4363722;32;20181;-59
2022/05/10 00:46:38;;;;;;;11.33;10.53;;;;;;;15.31;82.79;95983.44;4372574;32;20172;-60
2022/05/10 00:49:18;;;;;;;12.17;11.37;;;;;;;15.16;83.14;95981.94;4366497;32;20232;-60
2022/05/10 00:51:54;;;;;;;11.30;10.40;;;;;;;15.15;83.43;95984.91;4370237;32;20220;-59
2022/05/10 00:54:32;;;;;;;11.77;10.87;;;;;;;15.13;83.33;95986.00;4385536;32;20193;-59
2022/05/10 00:57:21;;;;;;;10.37;9.60;;;;;;;15.24;82.86;95991.09;4387064;32;20207;-60
2022/05/10 01:00:07;;;;;;;12.00;11.20;;;;;;;15.19;83.18;95992.00;4372350;32;20327;-59
2022/05/10 01:03:11;;;;;;;11.43;10.50;;;;;;;15.23;82.99;95992.19;4360251;32;20202;-59
2022/05/10 01:06:02;;;;;;;11.20;10.23;;;;;;;15.18;83.11;95987.75;4365945;32;20196;-59
2022/05/10 01:08:34;;;;;;;11.60;10.70;;;;;;;15.21;82.86;95989.00;4376913;32;20263;-59
2022/05/10 01:11:18;;;;;;;11.47;10.67;;;;;;;15.04;83.07;95990.50;4383376;32;20185;-59
2022/05/10 01:13:57;;;;;;;11.10;10.20;;;;;;;14.89;83.67;95982.84;4366052;32;20197;-59
2022/05/10 01:16:24;;;;;;;11.37;10.40;;;;;;;14.82;83.78;95987.03;4390155;32;20192;-59
2022/05/10 01:18:50;;;;;;;11.27;10.27;;;;;;;14.99;83.29;95982.59;4382053;32;20184;-59
2022/05/10 01:21:27;;;;;;;10.30;9.50;;;;;;;15.00;83.12;95984.19;4389291;32;21631;-59
2022/05/10 01:24:16;;;;;;;10.10;9.30;;;;;;;14.96;83.27;95982.44;4359646;32;20184;-59
2022/05/10 01:27:26;;;;;;;10.73;9.70;;;;;;;14.88;83.64;95981.28;4381129;32;20219;-59
2022/05/10 01:30:11;;;;;;;11.13;10.23;;;;;;;14.99;83.30;95982.59;4287062;32;20205;-59
2022/05/10 01:36:31;;;;;;;10.20;9.50;;;;;;;15.04;82.64;95973.66;4376297;32;20253;-59
2022/05/10 01:39:25;;;;;;;10.37;9.50;;;;;;;15.00;83.25;95973.47;4387002;32;20188;-62
2022/05/10 01:42:00;;;;;;;9.53;8.97;;;;;;;14.94;83.37;95971.25;4378284;32;20192;-59
2022/05/10 01:44:53;;;;;;;8.70;8.10;;;;;;;14.86;83.43;95972.78;4358188;32;20265;-59
2022/05/10 01:47:26;;;;;;;9.13;8.53;;;;;;;14.85;83.39;95965.84;4388904;32;20180;-59
2022/05/10 01:50:20;;;;;;;9.37;8.67;;;;;;;14.79;83.69;95969.72;4395988;32;20203;-59
2022/05/10 01:53:13;;;;;;;9.97;9.27;;;;;;;14.74;83.83;95969.87;4319858;33;20202;-59
2022/05/10 01:55:45;;;;;;;10.40;9.60;;;;;;;14.57;84.31;95969.72;4385554;32;20180;-59
2022/05/10 01:58:23;;;;;;;9.40;8.70;;;;;;;14.73;83.88;95968.28;4380606;32;20196;-59
2022/05/10 02:01:16;;;;;;;8.90;8.20;;;;;;;14.78;83.13;95960.91;4366839;32;20172;-59
2022/05/10 02:04:03;;;;;;;9.63;8.83;;;;;;;14.64;83.56;95973.56;4363449;32;20293;-59
2022/05/10 02:06:51;;;;;;;9.50;8.90;;;;;;;14.74;83.63;95975.22;4384648;32;20188;-59
2022/05/10 02:09:54;;;;;;;9.67;8.87;;;;;;;14.56;83.69;95970.81;4371852;32;22467;-59
2022/05/10 02:12:39;;;;;;;9.50;8.70;;;;;;;14.69;83.51;95980.66;4361825;32;20197;-59
2022/05/10 02:15:16;;;;;;;9.63;8.93;;;;;;;14.73;83.80;95976.31;4378704;32;20181;-59
2022/05/10 02:17:50;;;;;;;9.03;8.43;;;;;;;14.69;83.81;95975.31;4366066;32;20338;-59
2022/05/10 02:20:33;;;;;;;9.27;8.63;;;;;;;14.52;84.31;95978.66;4338544;32;20188;-59
2022/05/10 02:23:09;;;;;;;9.80;9.10;;;;;;;14.36;84.78;95982.69;4358459;32;20189;-60
2022/05/10 02:25:42;;;;;;;8.60;7.80;;;;;;;14.49;84.21;95983.81;4374953;32;20271;-59
2022/05/10 02:28:47;;;;;;;8.30;7.63;;;;;;;14.61;84.03;95984.03;4356260;32;20295;-59
2022/05/10 02:34:32;;;;;;;8.07;7.57;;;;;;;14.38;85.20;95994.66;4330184;32;20219;-59
2022/05/10 02:36:59;;;;;;;9.00;8.23;;;;;;;14.57;84.09;95986.53;4348391;32;20180;-60
2022/05/10 02:39:25;;;;;;;8.77;8.17;;;;;;;14.36;84.93;95980.81;4350738;32;20189;-59
2022/05/10 02:41:51;;;;;;;9.10;8.50;;;;;;;14.36;85.69;95983.50;4363813;32;20267;-59
2022/05/10 02:44:22;;;;;;;8.77;8.07;;;;;;;14.33;85.52;95986.78;4345564;32;20233;-59
2022/05/10 02:46:47;;;;;;;9.20;8.47;;;;;;;14.43;84.87;95991.91;4353117;32;20284;-59
2022/05/10 02:49:13;;;;;;;8.67;8.07;;;;;;;14.47;84.39;95992.09;4353872;32;20204;-59
2022/05/10 02:51:43;;;;;;;9.70;9.00;;;;;;;14.53;84.43;95990.13;4350493;32;20188;-59
2022/05/10 02:54:10;;;;;;;8.83;8.13;;;;;;;14.44;84.27;95990.81;4388319;32;20181;-59
2022/05/10 02:56:40;;;;;;;9.23;8.53;;;;;;;14.26;85.71;95990.94;4381893;32;20259;-59
2022/05/10 02:59:16;;;;;;;8.37;7.67;;;;;;;14.38;85.22;95983.19;4374310;32;20219;-59
2022/05/10 03:02:00;;;;;;;8.60;8.03;;;;;;;14.31;85.66;95980.94;4353258;32;20198;-60
2022/05/10 03:04:36;;;;;;;8.63;8.03;;;;;;;14.36;84.96;95985.38;4367491;32;20207;-60
2022/05/10 03:07:04;;;;;;;9.20;8.43;;;;;;;14.36;85.36;95991.50;4355930;32;20223;-59
2022/05/10 03:09:29;;;;;;;8.40;7.67;;;;;;;14.42;85.09;95990.34;4383302;32;20185;-59
2022/05/10 03:11:55;;;;;;;9.00;8.30;;;;;;;14.36;85.09;95986.16;4391366;32;20219;-59
2022/05/10 03:14:20;;;;;;;8.17;7.60;;;;;;;14.50;84.56;95990.72;4380811;32;20192;-59
2022/05/10 03:16:47;;;;;;;8.40;7.90;;;;;;;14.50;84.67;95983.50;4375577;32;21464;-59
2022/05/10 03:19:16;;;;;;;8.43;7.83;;;;;;;14.47;84.28;95988.66;4353655;32;20319;-60
2022/05/10 03:21:43;;;;;;;8.13;7.43;;;;;;;14.37;85.04;95985.06;4359373;32;20314;-60
2022/05/10 03:24:08;;;;;;;8.87;8.17;;;;;;;14.50;84.27;95990.72;4372198;32;20172;-59
2022/05/10 03:26:35;;;;;;;8.67;8.07;;;;;;;14.39;84.25;95992.78;4353768;32;20231;-60
2022/05/10 03:29:01;;;;;;;9.23;8.33;;;;;;;14.37;84.87;95993.09;4338518;32;20268;-60
2022/05/10 03:31:28;;;;;;;8.30;7.70;;;;;;;14.28;85.05;95989.56;4390400;32;20176;-60
2022/05/10 03:36:39;;;;;;;10.13;9.37;;;;;;;14.31;84.72;95994.31;4397099;32;20203;-60
2022/05/10 03:39:07;;;;;;;8.30;7.60;;;;;;;14.28;84.86;95988.75;4382261;32;20181;-59
2022/05/10 03:41:33;;;;;;;8.80;8.00;;;;;;;14.38;84.96;95994.66;4369446;32;20192;-60
2022/05/10 03:43:59;;;;;;;8.47;7.77;;;;;;;14.23;85.55;95991.53;4372113;32;20184;-60
2022/05/10 03:46:25;;;;;;;7.87;7.37;;;;;;;14.26;85.34;95991.72;4402506;32;20235;-60
2022/05/10 03:48:51;;;;;;;8.00;7.50;;;;;;;14.30;84.86;95989.25;4374004;32;20207;-60
2022/05/10 03:51:17;;;;;;;8.20;7.57;;;;;;;14.36;84.56;95991.50;4328141;32;20349;-60
2022/05/10 03:53:44;;;;;;;7.33;6.90;;;;;;;14.35;84.40;95995.25;4372936;32;20193;-60
2022/05/10 03:56:10;;;;;;;8.07;7.50;;;;;;;14.27;84.71;95992.53;4380344;32;20244;-60
2022/05/10 03:58:36;;;;;;;9.60;7.77;;;;;;;14.29;85.22;95993.81;4392394;32;20188;-60
2022/05/10 04:01:02;;;;;;;8.67;8.00;;;;;;;14.02;85.28;95989.28;4391216;32;20265;-60
2022/05/10 04:03:42;;;;;;;8.87;8.10;;;;;;;14.18;85.21;95994.31;4383763;32;20336;-60
2022/05/10 04:06:08;;;;;;;7.80;7.30;;;;;;;14.10;85.29;95985.16;4394859;32;20192;-59
2022/05/10 04:08:36;;;;;;;7.97;7.30;;;;;;;14.14;85.44;95993.31;4400243;32;20207;-59
2022/05/10 04:11:07;;;;;;;7.27;6.77;;;;;;;14.29;84.72;95998.34;4383431;32;20172;-60
2022/05/10 04:13:32;;;;;;;8.17;7.47;;;;;;;14.34;84.73;95990.25;4357585;32;20242;-60
2022/05/10 04:15:59;;;;;;;8.63;7.87;;;;;;;14.38;84.49;95988.53;4378376;32;20181;-60
2022/05/10 04:18:25;;;;;;;9.30;7.53;;;;;;;14.38;84.41;95985.84;4364802;32;20232;-60
2022/05/10 04:20:51;;;;;;;8.53;7.73;;;;;;;13.92;85.49;95992.19;4376153;32;20188;-60
2022/05/10 04:23:18;;;;;;;10.17;8.33;;;;;;;14.18;85.24;95984.41;4377510;32;20283;-60
2022/05/10 04:25:43;;;;;;;8.07;7.57;;;;;;;14.18;85.37;95979.09;4376666;32;20207;-60
2022/05/10 04:28:09;;;;;;;7.57;7.07;;;;;;;14.23;84.56;95987.00;4374936;32;20173;-60
2022/05/10 04:30:35;;;;;;;7.50;7.10;;;;;;;14.26;84.76;95989.06;4353483;32;20200;-60
2022/05/10 04:33:00;;;;;;;8.50;7.83;;;;;;;14.21;84.98;95989.16;4365139;32;20254;-60
2022/05/10 04:35:25;;;;;;;8.37;6.83;;;;;;;14.05;85.28;95993.25;4385464;32;20188;-59
2022/05/10 04:37:52;;;;;;;7.33;6.87;;;;;;;14.01;85.60;95994.94;4366054;32;20277;-59
2022/05/10 04:43:05;;;;;;;7.90;7.30;;;;;;;14.17;84.99;95996.19;4389004;32;20199;-60
2022/05/10 04:45:35;;;;;;;6.90;6.17;;;;;;;14.20;84.84;95998.25;4379379;32;20198;-58
2022/05/10 04:48:00;;;;;;;7.57;6.13;;;;;;;14.10;84.56;95995.81;4382956;32;20238;-59
2022/05/10 04:50:29;;;;;;;7.50;7.00;;;;;;;14.22;85.16;96001.41;4390237;32;20176;-59
2022/05/10 04:52:55;;;;;;;6.57;6.00;;;;;;;14.20;84.75;96000.94;4373554;32;20237;-59
2022/05/10 04:55:21;;;;;;;6.23;5.83;;;;;;;14.21;84.03;95999.84;4399869;32;20267;-59
2022/05/10 04:57:47;;;;;;;5.93;5.63;;;;;;;14.02;84.54;95997.28;4367419;32;20374;-59
2022/05/10 05:00:14;;;;;;;5.63;5.33;;;;;;;14.06;85.41;95994.81;4369323;32;20261;-59
2022/05/10 05:02:42;;;;;;;5.97;5.30;;;;;;;14.27;84.75;95990.66;4368897;32;20203;-60
2022/05/10 05:05:10;;;;;;;6.00;5.60;;;;;;;14.27;84.51;95987.19;4345429;32;20282;-60
2022/05/10 05:07:36;;;;;;;6.57;6.07;;;;;;;14.31;84.27;95988.97;4364678;32;20248;-60
2022/05/10 05:10:03;;;;;;;6.07;5.43;;;;;;;14.34;83.80;95987.56;4332465;32;20224;-60
2022/05/10 05:12:32;;;;;;;5.80;5.40;;;;;;;14.29;84.41;95991.13;4362126;32;20202;-59
2022/05/10 05:15:00;;;;;;;6.07;5.77;;;;;;;14.23;84.43;95991.53;4386942;32;20196;-59
2022/05/10 05:17:27;;;;;;;5.57;5.17;;;;;;;14.26;84.83;95991.72;4391064;32;20172;-59
2022/05/10 05:19:54;;;;;;;6.33;5.43;;;;;;;14.44;83.76;96003.38;4357678;32;20180;-59
2022/05/10 05:22:20;;;;;;;6.60;5.90;;;;;;;14.44;83.28;95996.16;4368993;32;20302;-60
2022/05/10 05:24:45;;;;;;;5.83;5.30;;;;;;;14.44;83.76;96000.72;4362151;32;20180;-59
2022/05/10 05:27:12;;;;;;;6.67;6.03;;;;;;;14.54;83.35;95997.03;4394674;32;20212;-60
2022/05/10 05:29:39;;;;;;;5.53;5.03;;;;;;;14.57;83.41;95999.09;4362363;32;20223;-60
2022/05/10 05:32:09;;;;;;;6.70;5.50;;;;;;;14.49;83.48;96005.94;4370477;32;20197;-59
2022/05/10 05:34:35;;;;;;;5.83;5.43;;;;;;;14.38;83.52;96008.00;4360271;32;20215;-59
2022/05/10 05:39:47;;;;;;;5.00;4.60;;;;;;;14.56;83.17;96005.53;4373398;32;20222;-59
2022/05/10 05:42:14;;;;;;;5.30;4.90;;;;;;;14.60;83.05;96014.50;4388705;32;20238;-59
2022/05/10 05:44:41;;;;;;;6.47;5.87;;;;;;;14.73;83.24;96013.69;4377523;32;20193;-60
2022/05/10 05:47:06;;;;;;;5.63;5.20;;;;;;;14.75;82.65;96017.66;4375894;32;20172;-60
2022/05/10 05:49:32;;;;;;;5.90;5.40;;;;;;;14.66;83.28;96016.78;4371629;32;20227;-60
2022/05/10 05:51:59;;;;;;;5.50;5.20;;;;;;;14.70;83.41;96006.28;4382153;32;20203;-61
2022/05/10 05:54:31;;;;;;;7.97;7.00;;;;;;;14.83;83.47;96021.47;4371698;32;20173;-60
2022/05/10 05:57:05;;;;;;;8.57;7.90;;;;;;;14.70;82.27;96011.62;4374981;32;20197;-61
2022/05/10 05:59:33;;;;;;;5.27;4.80;;;;;;;14.63;83.18;96008.56;4386628;32;20264;-60
2022/05/10 06:02:01;;;;;;;5.03;4.47;;;;;;;14.87;83.31;96003.75;4346706;32;20195;-60
2022/05/10 06:04:29;;;;;;;5.93;5.43;;;;;;;14.97;82.82;96002.69;4367036;32;20203;-60
2022/05/10 06:06:54;;;;;;;5.47;4.17;;;;;;;14.99;82.43;96009.31;4387826;32;20268;-60
2022/05/10 06:09:22;;;;;;;5.63;4.03;;;;;;;14.95;81.82;96007.56;4358677;32;20177;-60
2022/05/10 06:11:49;;;;;;;12.60;4.60;;;;;;;14.90;81.81;96011.16;4382981;32;20260;-59
2022/05/10 06:14:16;;;;;;;30.93;6.13;;;;;;;15.01;82.42;96009.00;4366813;32;20197;-60
2022/05/10 06:16:42;;;;;;;4.80;4.47;;;;;;;15.06;82.79;96014.25;4390845;32;20191;-60
2022/05/10 06:19:09;;;;;;;21.77;5.87;;;;;;;15.08;81.47;96007.50;4388000;32;20231;-60
2022/05/10 06:21:36;;;;;;;4.67;4.33;;;;;;;15.13;81.57;96014.63;4388683;32;20180;-60
2022/05/10 06:24:02;;;;;;;17.87;5.47;;;;;;;15.11;81.39;96017.59;4382782;32;20168;-60
2022/05/10 06:26:31;;;;;;;10.83;4.73;;;;;;;15.30;81.63;96016.59;4347748;32;20200;-59
2022/05/10 06:28:57;;;;;;;8.77;5.40;;;;;;;15.41;80.59;96015.22;4386034;32;20263;-60
2022/05/10 06:31:24;;;;;;;4.97;4.50;;;;;;;15.44;80.17;96025.31;4383715;32;20177;-61
2022/05/10 06:33:50;;;;;;;5.37;4.70;;;;;;;15.54;79.37;96022.41;4383721;32;20199;-60
2022/05/10 06:36:17;;;;;;;5.40;4.17;;;;;;;15.66;78.69;96011.16;4388394;32;20189;-60
2022/05/10 06:38:44;;;;;;;4.63;4.27;;;;;;;15.64;79.00;96016.81;4381333;32;20268;-60
2022/05/10 06:41:09;;;;;;;4.40;4.20;;;;;;;15.69;79.45;96022.03;4359913;32;20189;-60
2022/05/10 06:43:35;;;;;;;6.37;4.43;;;;;;;15.77;78.56;96012.47;4364104;32;20184;-60
2022/05/10 06:46:13;;;;;;;4.87;4.47;;;;;;;15.78;78.88;96014.84;4351694;32;20223;-60
2022/05/10 06:48:39;;;;;;;7.40;4.53;;;;;;;15.84;79.24;96025.38;4343552;32;20188;-60
2022/05/10 06:51:09;;;;;;;4.90;4.57;;;;;;;15.91;79.13;96020.38;4377762;32;20192;-60
2022/05/10 06:53:36;;;;;;;4.63;4.40;;;;;;;16.04;77.38;96019.47;4352240;32;20173;-60
2022/05/10 06:56:08;;;;;;;4.67;4.27;;;;;;;16.04;77.68;96022.16;4364647;32;20230;-60
2022/05/10 06:58:34;;;;;;;8.20;4.67;;;;;;;16.11;77.91;96014.47;4386789;32;20199;-60
2022/05/10 07:01:00;;;;;;;5.03;4.67;;;;;;;16.17;77.97;96020.47;4380069;32;20184;-61
2022/05/10 07:03:31;;;;;;;4.50;4.20;;;;;;;16.18;78.10;96012.13;4394713;32;20184;-60
2022/05/10 07:05:59;;;;;;;5.20;4.80;;;;;;;16.36;77.34;96013.75;4391766;32;20188;-61
2022/05/10 07:08:25;;;;;;;6.33;5.40;;;;;;;16.34;77.43;96017.81;4390593;32;20263;-60
2022/05/10 07:10:51;;;;;;;5.27;4.87;;;;;;;16.41;77.26;96010.13;4362215;32;20238;-60
2022/05/10 07:13:20;;;;;;;5.40;5.00;;;;;;;16.48;76.85;96005.88;4384440;32;20313;-60
2022/05/10 07:15:46;;;;;;;5.27;4.73;;;;;;;16.46;76.71;96002.72;4338572;32;20227;-60
2022/05/10 07:18:12;;;;;;;5.13;4.83;;;;;;;16.55;76.67;96000.06;4360011;32;20259;-60
2022/05/10 07:20:38;;;;;;;4.93;4.63;;;;;;;16.68;76.93;96006.38;4357470;32;20176;-59
2022/05/10 07:23:05;;;;;;;5.70;5.30;;;;;;;16.73;76.24;96007.03;4342698;32;20180;-60
2022/05/10 07:25:33;;;;;;;6.23;5.73;;;;;;;16.77;76.54;95999.94;4370274;32;20243;-60
2022/05/10 07:27:58;;;;;;;5.33;4.80;;;;;;;16.90;75.45;96002.75;4380900;32;20265;-61
2022/05/10 07:30:27;;;;;;;5.30;4.90;;;;;;;16.89;75.14;95993.13;4399688;32;20192;-60
2022/05/10 07:32:52;;;;;;;5.60;5.20;;;;;;;16.95;74.97;95992.66;4388506;32;20195;-60
2022/05/10 07:36:23;;;;;;;6.00;5.57;;;;;;;16.96;75.71;95994.25;4377211;32;20301;-60
2022/05/10 07:38:08;;;;;;;6.10;5.57;;;;;;;16.90;75.64;95992.81;4369300;32;20194;-60
2022/05/10 07:40:33;;;;;;;5.83;5.20;;;;;;;17.10;75.59;95994.06;4386501;32;20177;-60
2022/05/10 07:43:03;;;;;;;5.60;5.17;;;;;;;17.28;75.47;95994.81;4368158;32;20184;-60
2022/05/10 07:45:29;;;;;;;5.70;5.20;;;;;;;17.38;74.75;95992.59;4362281;32;20224;-59
2022/05/10 07:47:55;;;;;;;7.07;5.50;;;;;;;17.51;73.88;95998.84;4367252;32;20180;-60
2022/05/10 07:50:20;;;;;;;5.73;5.33;;;;;;;17.51;74.08;95985.44;4387492;32;20180;-60
2022/05/10 07:52:46;;;;;;;5.80;5.40;;;;;;;17.67;73.23;95986.50;4388658;32;20191;-60
2022/05/10 07:55:13;;;;;;;6.30;5.20;;;;;;;17.67;72.87;95986.50;4374425;32;20181;-60
2022/05/10 07:57:42;;;;;;;5.23;4.70;;;;;;;17.69;72.71;95988.88;4379537;32;20175;-60
2022/05/10 08:00:11;;;;;;;5.67;5.17;;;;;;;17.83;71.69;95989.47;4358356;32;20168;-60
2022/05/10 08:02:42;;;;;;;5.37;4.97;;;;;;;18.00;71.20;95993.97;4356686;32;20244;-60
2022/05/10 08:05:10;;;;;;;5.20;4.83;;;;;;;18.08;69.97;95982.41;4386005;32;20271;-60
2022/05/10 08:07:35;;;;;;;4.63;4.33;;;;;;;18.20;69.37;95985.94;4360605;32;20191;-60
2022/05/10 08:10:02;;;;;;;7.33;5.07;;;;;;;18.20;69.57;95987.84;4378476;32;20196;-60
2022/05/10 08:12:27;;;;;;;4.70;4.50;;;;;;;18.18;70.45;95984.69;4374656;32;20207;-60
2022/05/10 08:14:52;;;;;;;5.03;4.70;;;;;;;18.15;69.70;95982.66;4391712;32;20201;-60
2022/05/10 08:17:19;;;;;;;5.60;5.17;;;;;;;18.25;69.83;95984.97;4378252;32;20203;-60
2022/05/10 08:19:45;;;;;;;6.30;5.83;;;;;;;18.28;68.84;95983.56;4368494;32;20192;-60
2022/05/10 08:22:12;;;;;;;8.57;6.93;;;;;;;18.29;68.55;95980.50;4376175;32;20189;-60
2022/05/10 08:24:39;;;;;;;5.33;5.03;;;;;;;18.42;67.64;95973.34;4383650;32;20199;-60
2022/05/10 08:27:06;;;;;;;5.13;4.80;;;;;;;18.52;67.14;95972.94;4387628;32;20264;-60
2022/05/10 08:29:31;;;;;;;5.47;5.03;;;;;;;18.47;67.88;95971.25;4378836;32;20199;-60
2022/05/10 08:31:58;;;;;;;4.63;4.33;;;;;;;18.53;67.81;95974.50;4392505;32;20188;-60
2022/05/10 08:34:27;;;;;;;5.10;4.80;;;;;;;18.49;66.49;95973.59;4366612;32;20180;-60
2022/05/10 08:36:56;;;;;;;4.80;4.40;;;;;;;18.47;66.49;95968.56;4348827;32;20188;-60
2022/05/10 08:39:22;;;;;;;5.17;4.73;;;;;;;18.48;67.75;95972.81;4385815;32;20243;-60
2022/05/10 08:42:00;;;;;;;5.43;5.03;;;;;;;18.63;66.41;95974.16;4365164;32;20267;-61
2022/05/10 08:44:35;;;;;;;5.47;4.97;;;;;;;18.56;66.14;95973.84;4364075;32;20180;-60
2022/05/10 08:47:06;;;;;;;5.50;5.20;;;;;;;18.68;64.06;95971.28;4349310;32;20206;-60
2022/05/10 08:49:50;;;;;;;4.97;4.57;;;;;;;18.57;64.62;95966.56;4366405;32;20199;-61
2022/05/10 08:52:18;;;;;;;5.67;5.17;;;;;;;18.59;65.09;95961.66;4385466;32;20221;-60
2022/05/10 08:54:45;;;;;;;6.07;5.57;;;;;;;18.59;65.36;95967.84;4386128;32;20239;-60
2022/05/10 08:57:41;;;;;;;5.27;4.87;;;;;;;18.69;63.86;95966.69;4392203;32;20262;-60
2022/05/10 09:00:31;;;;;;;5.37;4.87;;;;;;;18.69;63.01;95967.47;4384606;32;20191;-61
2022/05/10 09:03:00;;;;;;;4.67;4.40;;;;;;;18.74;62.27;95959.19;4379898;32;20231;-60
2022/05/10 09:05:41;;;;;;;5.07;4.67;;;;;;;18.80;64.24;95959.78;4387052;32;20203;-60
2022/05/10 09:08:23;;;;;;;4.20;4.00;;;;;;;18.84;62.80;95963.38;4367559;32;20218;-59
2022/05/10 09:10:57;;;;;;;4.40;4.10;;;;;;;18.96;60.97;95959.94;4368329;32;20267;-61
2022/05/10 09:13:24;;;;;;;4.63;4.27;;;;;;;18.99;57.06;95961.97;4304285;32;20195;-60
2022/05/10 09:16:11;;;;;;;4.40;4.10;;;;;;;19.02;58.40;95959.41;4339350;32;20215;-61
2022/05/10 09:18:42;;;;;;;5.27;4.77;;;;;;;18.97;58.69;95951.56;4330767;32;20193;-60
2022/05/10 09:21:50;;;;;;;4.80;4.50;;;;;;;19.25;57.05;95956.34;4357791;32;20207;-60
2022/05/10 09:24:48;;;;;;;4.57;4.27;;;;;;;19.22;58.77;95958.59;4292536;32;20193;-60
2022/05/10 09:27:37;;;;;;;4.57;4.37;;;;;;;19.29;57.25;95963.44;4277691;32;20233;-61
2022/05/10 09:30:27;;;;;;;4.80;4.40;;;;;;;19.41;59.31;95950.00;4347049;32;20180;-61
2022/05/10 09:36:20;;;;;;;5.13;4.73;;;;;;;19.51;55.30;95959.59;4355364;32;20194;-61
2022/05/10 09:38:50;;;;;;;4.60;4.27;;;;;;;19.56;56.11;95951.25;4333725;32;20174;-60
2022/05/10 09:41:46;;;;;;;4.47;4.07;;;;;;;19.58;54.42;95951.72;4360701;32;20172;-59
2022/05/10 09:44:31;;;;;;;4.83;4.33;;;;;;;19.65;56.31;95945.78;4351591;32;20043;-60
2022/05/10 09:47:17;;;;;;;4.40;4.20;;;;;;;19.71;55.98;95957.91;4348091;32;20205;-62
2022/05/10 09:49:44;;;;;;;4.60;4.30;;;;;;;19.79;56.69;95960.47;4358497;32;20183;-60
2022/05/10 09:52:19;;;;;;;8.13;4.47;;;;;;;19.86;54.19;95949.94;4367762;32;20180;-60
2022/05/10 09:54:47;;;;;;;4.67;4.27;;;;;;;19.98;52.08;95956.44;4313269;32;20200;-59
2022/05/10 09:57:49;;;;;;;4.13;3.93;;;;;;;19.82;53.28;95959.03;4363069;32;20212;-62
2022/05/10 10:00:17;;;;;;;4.40;4.10;;;;;;;19.85;51.38;95950.28;4312185;32;20195;-59
2022/05/10 10:02:43;;;;;;;4.70;4.40;;;;;;;19.92;51.65;95957.81;4290439;32;20201;-61
2022/05/10 10:05:28;;;;;;;5.13;4.23;;;;;;;20.06;51.60;95956.34;4344049;32;20215;-60
2022/05/10 10:07:56;;;;;;;4.23;3.90;;;;;;;20.10;49.67;95940.28;4349467;32;20185;-61
2022/05/10 10:10:29;;;;;;;4.70;4.40;;;;;;;20.23;49.59;95947.22;4342918;32;20223;-60
2022/05/10 10:12:55;;;;;;;4.00;3.80;;;;;;;20.20;50.54;95943.28;4380338;32;20208;-60
2022/05/10 10:15:45;;;;;;;4.17;3.97;;;;;;;20.31;48.54;95935.53;4369638;32;20267;-60
2022/05/10 10:18:12;;;;;;;5.40;4.90;;;;;;;20.40;48.55;95935.41;4348970;32;20229;-60
2022/05/10 10:20:52;;;;;;;4.90;4.60;;;;;;;20.46;48.97;95934.84;4348445;32;20224;-60
2022/05/10 10:23:37;;;;;;;5.27;4.97;;;;;;;20.58;48.67;95934.81;4344038;32;20267;-60
2022/05/10 10:26:23;;;;;;;4.23;3.93;;;;;;;20.48;49.10;95932.59;4352971;32;20210;-60
2022/05/10 10:28:58;;;;;;;4.27;4.07;;;;;;;20.43;46.93;95929.34;4368229;32;20210;-60
2022/05/10 10:31:33;;;;;;;4.10;3.90;;;;;;;20.48;47.52;95921.03;4345024;32;20243;-60
2022/05/10 10:34:19;;;;;;;4.17;3.97;;;;;;;20.52;48.46;95927.31;4357271;32;20180;-60
2022/05/10 10:37:17;;;;;;;3.97;3.73;;;;;;;20.53;47.98;95923.50;4348982;32;20198;-60
2022/05/10 10:40:06;;;;;;;4.10;3.80;;;;;;;20.59;48.57;95928.28;4352417;32;20199;-60
2022/05/10 10:42:56;;;;;;;6.80;6.30;;;;;;;20.55;49.70;95918.56;4384375;32;20177;-60
2022/05/10 10:45:48;;;;;;;5.50;5.00;;;;;;;20.54;52.01;95920.47;4359476;32;20233;-61
2022/05/10 10:48:27;;;;;;;5.27;4.87;;;;;;;20.63;50.68;95914.13;4363079;32;20224;-61
2022/05/10 10:50:56;;;;;;;5.07;4.73;;;;;;;20.67;50.10;95910.41;4347703;32;20181;-60
2022/05/10 10:53:27;;;;;;;4.60;4.30;;;;;;;20.67;50.63;95906.91;4342598;32;20176;-60
2022/05/10 10:56:29;;;;;;;4.77;4.33;;;;;;;20.68;50.95;95909.28;4369122;32;20278;-60
2022/05/10 10:59:11;;;;;;;7.03;6.00;;;;;;;20.72;48.80;95902.06;4368665;32;20253;-61
2022/05/10 11:02:04;;;;;;;6.20;5.57;;;;;;;20.95;48.91;95913.09;4328302;32;20196;-60
2022/05/10 11:05:05;;;;;;;5.97;5.67;;;;;;;21.05;48.58;95906.41;4316163;32;20220;-59
2022/05/10 11:07:56;;;;;;;6.03;5.60;;;;;;;21.03;48.64;95912.16;4348160;32;20185;-60
2022/05/10 11:11:04;;;;;;;5.60;5.20;;;;;;;21.02;48.28;95901.69;4341149;32;20370;-61
2022/05/10 11:13:55;;;;;;;5.30;4.90;;;;;;;21.00;47.87;95899.34;4347491;32;20207;-63
2022/05/10 11:16:44;;;;;;;5.37;4.57;;;;;;;20.95;49.19;95890.72;4323541;32;20203;-61
2022/05/10 11:19:47;;;;;;;4.63;4.33;;;;;;;20.87;47.82;95900.53;4342603;32;20176;-61
2022/05/10 11:22:33;;;;;;;4.93;4.63;;;;;;;20.99;47.52;95889.69;4350860;32;20184;-62
2022/05/10 11:25:23;;;;;;;5.03;4.73;;;;;;;20.93;46.30;95883.78;4345114;32;20184;-62
2022/05/10 11:28:23;;;;;;;4.53;4.17;;;;;;;20.86;48.96;95885.50;4368115;32;20316;-61
2022/05/10 11:31:14;;;;;;;4.50;4.10;;;;;;;20.74;47.69;95872.06;4336283;32;20203;-63
2022/05/10 11:33:55;;;;;;;4.37;4.03;;;;;;;20.65;46.97;95868.72;4361021;32;20271;-61
2022/05/10 11:36:42;;;;;;;4.03;3.73;;;;;;;20.71;45.98;95872.75;4344962;32;20203;-60
2022/05/10 11:39:32;;;;;;;4.67;4.30;;;;;;;20.85;46.45;95867.72;4358833;32;20185;-61
2022/05/10 11:42:23;;;;;;;4.73;4.33;;;;;;;21.05;47.08;95869.41;4350181;32;20242;-63
2022/05/10 11:45:21;;;;;;;4.63;4.23;;;;;;;21.09;48.24;95864.13;4333296;32;20259;-62
2022/05/10 11:48:22;;;;;;;4.73;4.43;;;;;;;21.23;46.06;95864.50;4365122;32;20184;-61
2022/05/10 11:54:18;;;;;;;5.40;4.97;;;;;;;21.18;46.81;95852.03;4345485;32;20206;-61
2022/05/10 11:56:47;;;;;;;5.53;5.20;;;;;;;21.17;47.61;95850.47;4337626;32;20239;-62
2022/05/10 11:59:32;;;;;;;5.03;4.63;;;;;;;21.17;49.48;95855.06;4354346;32;20220;-61
2022/05/10 12:01:59;;;;;;;5.67;5.27;;;;;;;20.94;47.75;95854.87;4288646;32;20185;-63
2022/05/10 12:04:46;;;;;;;5.53;5.03;;;;;;;21.07;47.23;95847.47;4335035;32;20256;-64
2022/05/10 12:07:34;;;;;;;6.17;4.80;;;;;;;21.17;46.49;95847.75;4304903;32;20272;-41
2022/05/10 12:10:27;;;;;;;6.10;4.97;;;;;;;21.21;46.89;95837.84;4309011;32;20189;-43
2022/05/10 12:13:04;;;;;;;6.37;4.50;;;;;;;21.34;48.01;95835.06;4357365;32;20237;-43
2022/05/10 12:21:51;;;;;;;5.27;4.77;;;;;;;21.30;51.26;95826.09;4340755;32;20199;-44
2022/05/10 12:24:23;;;;;;;4.90;4.50;;;;;;;21.11;46.91;95835.66;4323418;32;20189;-43
2022/05/10 12:26:59;;;;;;;5.77;5.40;;;;;;;21.25;46.77;95824.44;4332522;32;20192;-60
2022/05/10 12:29:41;;;;;;;5.30;4.80;;;;;;;21.30;46.14;95820.72;4349465;32;20184;-63
2022/05/10 12:32:41;;;;;;;4.50;4.10;;;;;;;21.33;46.42;95820.00;4358554;32;20180;-61